Terminal Aerodrome Forecast
Issued by NWS

Home | Current Version | Previous Version | Text Only | Print | Product List | Glossary On
Versions: 1 2 3 4 5 6 7 8 9 10 11 12 13 14 15 16 17 18 19 20 21 22 23 24 25 26 27 28 29 30 31
000
FTUS41 KPBZ 280800 AAB
TAFAGC
TAF AMD
KAGC 280847Z 2809/2906 20005KT P6SM SCT010 BKN015
      TEMPO 2809/2811 P6SM BKN008
     FM281500 31013G15KT P6SM VCSH BKN025
     FM282100 31013G18KT P6SM BKN035
     FM290200 30005KT P6SM FEW035=

USA.gov is the U.S. government's official web portal to all federal, state and local government web resources and services.